createdAt,value
2016-09-15T00:00:34.070Z,0
2016-09-15T00:01:45.228Z,0
2016-09-15T00:02:56.229Z,0
2016-09-15T00:04:07.232Z,0
2016-09-15T00:05:18.242Z,0
2016-09-15T00:06:29.246Z,0
2016-09-15T00:07:40.265Z,0
2016-09-15T00:08:51.278Z,0
2016-09-15T00:10:02.281Z,0
2016-09-15T00:11:13.285Z,0
2016-09-15T00:12:24.280Z,0
2016-09-15T00:13:35.292Z,0
2016-09-15T00:14:46.300Z,0
2016-09-15T00:15:57.304Z,0
2016-09-15T00:17:08.308Z,0
2016-09-15T00:18:19.313Z,0
2016-09-15T00:19:30.318Z,0
2016-09-15T00:20:41.321Z,0
2016-09-15T00:21:52.349Z,0
2016-09-15T00:23:03.361Z,0
2016-09-15T00:24:14.564Z,0
2016-09-15T00:25:25.781Z,0
2016-09-15T00:26:36.780Z,0
2016-09-15T00:27:47.790Z,0
2016-09-15T00:28:58.810Z,0
2016-09-15T00:30:09.816Z,0
2016-09-15T00:31:20.821Z,0
2016-09-15T00:32:31.825Z,0
2016-09-15T00:33:42.833Z,0
2016-09-15T00:34:53.831Z,0
2016-09-15T00:36:04.830Z,0
2016-09-15T00:37:15.833Z,0
2016-09-15T00:38:27.029Z,0
2016-09-15T00:39:38.231Z,0
2016-09-15T00:40:49.235Z,0
2016-09-15T00:42:00.255Z,0
2016-09-15T00:43:11.263Z,0
2016-09-15T00:44:22.262Z,0
2016-09-15T00:45:33.276Z,0
2016-09-15T00:46:44.286Z,0
2016-09-15T00:47:55.297Z,0
2016-09-15T00:49:06.299Z,0
2016-09-15T00:50:17.304Z,0
2016-09-15T00:51:28.904Z,0
2016-09-15T00:52:39.900Z,0
2016-09-15T00:53:50.897Z,0
2016-09-15T00:55:01.908Z,0
2016-09-15T00:56:12.906Z,0
2016-09-15T00:57:23.908Z,0
2016-09-15T00:58:34.926Z,0
2016-09-15T00:59:46.129Z,0
2016-09-15T01:00:57.143Z,0
2016-09-15T01:02:08.194Z,0
2016-09-15T01:03:19.201Z,0
2016-09-15T01:04:30.196Z,0
2016-09-15T01:05:41.202Z,0
2016-09-15T01:06:52.218Z,0
2016-09-15T01:08:03.221Z,0
2016-09-15T01:09:14.430Z,0
2016-09-15T01:10:25.428Z,0
2016-09-15T01:11:36.433Z,0
2016-09-15T01:12:47.448Z,0
2016-09-15T01:13:58.459Z,0
2016-09-15T01:15:09.465Z,0
2016-09-15T01:16:20.466Z,0
2016-09-15T01:17:31.679Z,0
2016-09-15T01:18:42.687Z,0
2016-09-15T01:19:53.693Z,0
2016-09-15T01:21:04.695Z,0
2016-09-15T01:22:15.695Z,0
2016-09-15T01:23:26.898Z,0
2016-09-15T01:24:37.901Z,0
2016-09-15T01:25:48.922Z,0
2016-09-15T01:26:59.927Z,0
2016-09-15T01:28:10.931Z,0
2016-09-15T01:29:22.341Z,0
2016-09-15T01:30:33.343Z,0
2016-09-15T01:31:44.347Z,0
2016-09-15T01:32:55.362Z,0
2016-09-15T01:34:06.365Z,0
2016-09-15T01:35:17.366Z,0
2016-09-15T01:36:28.565Z,0
2016-09-15T01:37:39.565Z,0
2016-09-15T01:38:50.580Z,0
2016-09-15T01:40:01.586Z,0
2016-09-15T01:41:12.588Z,0
2016-09-15T01:42:23.583Z,0
2016-09-15T01:43:34.606Z,0
2016-09-15T01:44:45.619Z,0
2016-09-15T01:45:56.627Z,0
2016-09-15T01:47:07.634Z,0
2016-09-15T01:48:18.635Z,0
2016-09-15T01:49:29.632Z,0
2016-09-15T01:50:40.634Z,0
2016-09-15T01:51:51.643Z,0
2016-09-15T01:53:02.653Z,0
2016-09-15T01:54:13.653Z,0
2016-09-15T01:55:24.657Z,0
2016-09-15T01:56:35.656Z,0
2016-09-15T01:57:46.662Z,0
2016-09-15T01:58:57.675Z,0
2016-09-15T02:00:08.676Z,0
2016-09-15T02:01:19.673Z,0
2016-09-15T02:02:30.722Z,0
2016-09-15T02:03:41.924Z,0
2016-09-15T02:04:52.931Z,0
2016-09-15T02:06:03.939Z,0
2016-09-15T02:07:14.948Z,0
2016-09-15T02:08:25.949Z,0
2016-09-15T02:09:37.160Z,0
2016-09-15T02:10:48.162Z,0
2016-09-15T02:11:59.376Z,0
2016-09-15T02:13:10.383Z,0
2016-09-15T02:14:21.388Z,0
2016-09-15T02:15:32.403Z,0
2016-09-15T02:16:43.420Z,0
2016-09-15T02:17:54.423Z,0
2016-09-15T02:19:05.424Z,0
2016-09-15T02:20:16.626Z,0
2016-09-15T02:21:27.634Z,0
2016-09-15T02:22:38.847Z,0
2016-09-15T02:23:49.859Z,0
2016-09-15T02:25:00.864Z,0
2016-09-15T02:26:11.867Z,0
2016-09-15T02:27:22.873Z,0
2016-09-15T02:28:33.873Z,0
2016-09-15T02:29:44.888Z,0
2016-09-15T02:30:55.896Z,0
2016-09-15T02:32:06.906Z,0
2016-09-15T02:33:17.924Z,0
2016-09-15T02:34:28.926Z,0
2016-09-15T02:35:39.933Z,0
2016-09-15T02:36:50.939Z,0
2016-09-15T02:38:02.147Z,0
2016-09-15T02:39:13.155Z,0
2016-09-15T02:40:24.164Z,0
2016-09-15T02:41:35.174Z,0
2016-09-15T02:42:46.194Z,0
2016-09-15T02:43:57.197Z,0
2016-09-15T02:45:08.208Z,0
2016-09-15T02:46:19.207Z,0
2016-09-15T02:47:30.211Z,0
2016-09-15T02:48:41.222Z,0
2016-09-15T02:49:52.436Z,0
2016-09-15T02:51:03.440Z,0
2016-09-15T02:52:14.634Z,0
2016-09-15T02:53:25.639Z,0
2016-09-15T02:54:36.646Z,0
2016-09-15T02:55:47.646Z,0
2016-09-15T02:56:58.648Z,0
2016-09-15T02:58:09.643Z,0
2016-09-15T02:59:20.650Z,0
2016-09-15T03:00:31.655Z,0
2016-09-15T03:01:42.658Z,0
2016-09-15T03:02:53.708Z,0
2016-09-15T03:04:04.711Z,0
2016-09-15T03:05:15.716Z,0
2016-09-15T03:06:26.930Z,0
2016-09-15T03:07:37.932Z,0
2016-09-15T03:08:49.150Z,0
2016-09-15T03:10:00.353Z,0
2016-09-15T03:11:11.355Z,0
2016-09-15T03:12:22.362Z,0
2016-09-15T03:13:33.571Z,0
2016-09-15T03:14:44.566Z,0
2016-09-15T03:15:55.762Z,0
2016-09-15T03:17:06.977Z,0
2016-09-15T03:18:17.986Z,0
2016-09-15T03:19:28.989Z,0
2016-09-15T03:20:40.189Z,0
2016-09-15T03:21:51.181Z,0
2016-09-15T03:23:02.380Z,0
2016-09-15T03:24:13.385Z,0
2016-09-15T03:25:24.396Z,0
2016-09-15T03:26:35.399Z,0
2016-09-15T03:27:46.401Z,0
2016-09-15T03:28:57.408Z,0
2016-09-15T03:30:08.413Z,0
2016-09-15T03:31:19.429Z,0
2016-09-15T03:32:30.444Z,0
2016-09-15T03:33:41.663Z,0
2016-09-15T03:34:52.660Z,0
2016-09-15T03:36:03.669Z,0
2016-09-15T03:37:14.877Z,0
2016-09-15T03:38:25.880Z,0
2016-09-15T03:39:36.884Z,0
2016-09-15T03:40:47.876Z,0
2016-09-15T03:41:59.291Z,0
2016-09-15T03:43:10.312Z,0
2016-09-15T03:44:21.313Z,0
2016-09-15T03:45:32.332Z,0
2016-09-15T03:46:43.346Z,0
2016-09-15T03:47:54.562Z,0
2016-09-15T03:49:05.581Z,0
2016-09-15T03:50:16.593Z,0
2016-09-15T03:51:27.600Z,0
2016-09-15T03:52:38.632Z,0
2016-09-15T03:53:49.629Z,0
2016-09-15T03:55:00.638Z,0
2016-09-15T03:56:11.643Z,0
2016-09-15T03:57:22.646Z,0
2016-09-15T03:58:33.661Z,0
2016-09-15T03:59:44.665Z,0
2016-09-15T04:00:55.677Z,0
2016-09-15T04:02:06.680Z,0
2016-09-15T04:03:17.733Z,0
2016-09-15T04:04:28.730Z,0
2016-09-15T04:05:40.135Z,0
2016-09-15T04:06:51.125Z,0
2016-09-15T04:08:02.130Z,0
2016-09-15T04:09:13.134Z,0
2016-09-15T04:10:24.139Z,0
2016-09-15T04:11:35.353Z,0
2016-09-15T04:12:46.353Z,0
2016-09-15T04:13:57.364Z,0
2016-09-15T04:15:08.368Z,0
2016-09-15T04:16:19.365Z,0
2016-09-15T04:17:30.568Z,0
2016-09-15T04:18:41.568Z,0
2016-09-15T04:19:52.574Z,0
2016-09-15T04:21:03.563Z,0
2016-09-15T04:22:14.564Z,0
2016-09-15T04:23:25.571Z,0
2016-09-15T04:24:36.574Z,0
2016-09-15T04:25:47.578Z,0
2016-09-15T04:26:58.772Z,0
2016-09-15T04:28:09.776Z,0
2016-09-15T04:29:20.787Z,0
2016-09-15T04:30:31.789Z,0
2016-09-15T04:31:42.791Z,0
2016-09-15T04:32:53.799Z,0
2016-09-15T04:34:04.802Z,0
2016-09-15T04:35:16.019Z,0
2016-09-15T04:36:27.235Z,0
2016-09-15T04:37:38.441Z,0
2016-09-15T04:38:49.442Z,0
2016-09-15T04:40:00.449Z,0
2016-09-15T04:41:11.451Z,0
2016-09-15T04:42:22.673Z,0
2016-09-15T04:43:33.666Z,0
2016-09-15T04:44:44.686Z,0
2016-09-15T04:45:55.699Z,0
2016-09-15T04:47:06.697Z,0
2016-09-15T04:48:17.693Z,0
2016-09-15T04:49:28.695Z,0
2016-09-15T04:50:39.696Z,0
2016-09-15T04:51:50.718Z,0
2016-09-15T04:53:01.719Z,0
2016-09-15T04:54:12.727Z,0
2016-09-15T04:55:23.722Z,0
2016-09-15T04:56:34.724Z,0
2016-09-15T04:57:45.750Z,0
2016-09-15T04:58:56.747Z,5
2016-09-15T05:00:07.745Z,5
2016-09-15T05:01:18.755Z,5
2016-09-15T05:02:29.753Z,5
2016-09-15T05:03:40.806Z,5
2016-09-15T05:04:52.009Z,10
2016-09-15T05:06:03.005Z,10
2016-09-15T05:07:14.009Z,10
2016-09-15T05:08:25.006Z,10
2016-09-15T05:09:36.008Z,15
2016-09-15T05:10:47.013Z,15
2016-09-15T05:11:58.012Z,15
2016-09-15T05:13:09.215Z,15
2016-09-15T05:14:20.216Z,20
2016-09-15T05:15:31.221Z,20
2016-09-15T05:16:42.228Z,25
2016-09-15T05:17:53.442Z,25
2016-09-15T05:19:04.454Z,25
2016-09-15T05:20:15.453Z,30
2016-09-15T05:21:26.455Z,30
2016-09-15T05:22:37.453Z,35
2016-09-15T05:23:48.669Z,35
2016-09-15T05:24:59.673Z,40
2016-09-15T05:26:10.676Z,45
2016-09-15T05:27:21.681Z,45
2016-09-15T05:28:32.883Z,50
2016-09-15T05:29:43.889Z,55
2016-09-15T05:30:54.881Z,55
2016-09-15T05:32:05.878Z,60
2016-09-15T05:33:16.870Z,60
2016-09-15T05:34:27.878Z,65
2016-09-15T05:35:39.083Z,70
2016-09-15T05:36:50.085Z,70
2016-09-15T05:38:01.079Z,75
2016-09-15T05:39:12.084Z,75
2016-09-15T05:40:23.079Z,80
2016-09-15T05:41:34.082Z,85
2016-09-15T05:42:45.486Z,85
2016-09-15T05:43:56.491Z,85
2016-09-15T05:45:07.490Z,90
2016-09-15T05:46:18.491Z,95
2016-09-15T05:47:29.497Z,100
2016-09-15T05:48:40.692Z,100
2016-09-15T05:49:51.699Z,105
2016-09-15T05:51:02.700Z,110
2016-09-15T05:52:13.697Z,115
2016-09-15T05:53:24.704Z,115
2016-09-15T05:54:35.707Z,120
2016-09-15T05:55:46.710Z,125
2016-09-15T05:56:57.710Z,130
2016-09-15T05:58:08.718Z,135
2016-09-15T05:59:19.738Z,140
2016-09-15T06:00:30.737Z,145
2016-09-15T06:01:41.736Z,150
2016-09-15T06:02:52.951Z,150
2016-09-15T06:04:04.003Z,155
2016-09-15T06:05:15.241Z,160
2016-09-15T06:06:26.249Z,160
2016-09-15T06:07:37.247Z,165
2016-09-15T06:08:48.453Z,165
2016-09-15T06:09:59.466Z,170
2016-09-15T06:11:10.477Z,175
2016-09-15T06:12:21.497Z,180
2016-09-15T06:13:32.504Z,185
2016-09-15T06:14:43.504Z,190
2016-09-15T06:15:54.509Z,190
2016-09-15T06:17:05.915Z,195
2016-09-15T06:18:16.925Z,200
2016-09-15T06:19:27.929Z,205
2016-09-15T06:20:38.929Z,210
2016-09-15T06:21:49.933Z,215
2016-09-15T06:23:00.948Z,215
2016-09-15T06:24:11.941Z,215
2016-09-15T06:25:22.935Z,215
2016-09-15T06:26:33.948Z,220
2016-09-15T06:27:44.954Z,220
2016-09-15T06:28:56.152Z,225
2016-09-15T06:30:07.162Z,230
2016-09-15T06:31:18.365Z,230
2016-09-15T06:32:29.371Z,240
2016-09-15T06:33:40.366Z,240
2016-09-15T06:34:51.371Z,245
2016-09-15T06:36:02.373Z,245
2016-09-15T06:37:13.579Z,245
2016-09-15T06:38:24.575Z,250
2016-09-15T06:39:35.574Z,260
2016-09-15T06:40:46.580Z,355
2016-09-15T06:41:57.590Z,735
2016-09-15T06:43:08.591Z,1110
2016-09-15T06:44:19.588Z,1220
2016-09-15T06:45:30.603Z,1265
2016-09-15T06:46:41.610Z,1230
2016-09-15T06:47:52.619Z,1250
2016-09-15T06:49:03.626Z,1330
2016-09-15T06:50:14.632Z,1340
2016-09-15T06:51:25.639Z,1350
2016-09-15T06:52:36.645Z,1370
2016-09-15T06:53:47.655Z,1385
2016-09-15T06:54:58.667Z,1405
2016-09-15T06:56:09.670Z,1435
2016-09-15T06:57:20.689Z,1445
2016-09-15T06:58:31.698Z,1400
2016-09-15T06:59:42.707Z,1475
2016-09-15T07:00:53.724Z,1500
2016-09-15T07:02:04.746Z,1370
2016-09-15T07:03:15.766Z,1285
2016-09-15T07:04:26.825Z,1390
2016-09-15T07:05:37.839Z,1095
2016-09-15T07:06:49.047Z,830
2016-09-15T07:08:00.054Z,770
2016-09-15T07:09:11.077Z,445
2016-09-15T07:10:22.089Z,405
2016-09-15T07:11:33.102Z,840
2016-09-15T07:12:44.124Z,1320
2016-09-15T07:13:55.141Z,1340
2016-09-15T07:15:06.170Z,1500
2016-09-15T07:16:17.381Z,1430
2016-09-15T07:17:28.387Z,885
2016-09-15T07:18:39.393Z,610
2016-09-15T07:19:50.401Z,430
2016-09-15T07:21:01.495Z,490
2016-09-15T07:22:12.510Z,610
2016-09-15T07:23:23.737Z,865
2016-09-15T07:24:34.951Z,660
2016-09-15T07:25:45.966Z,505
2016-09-15T07:26:56.979Z,1125
2016-09-15T07:28:08.182Z,1355
2016-09-15T07:29:19.196Z,785
2016-09-15T07:30:30.408Z,470
2016-09-15T07:31:41.408Z,440
2016-09-15T07:32:52.622Z,605
2016-09-15T07:34:03.633Z,1035
2016-09-15T07:35:14.837Z,1385
2016-09-15T07:36:25.857Z,1310
2016-09-15T07:37:36.882Z,855
2016-09-15T07:38:47.884Z,1665
2016-09-15T07:39:58.895Z,1855
2016-09-15T07:41:09.904Z,1805
2016-09-15T07:42:21.115Z,1825
2016-09-15T07:43:32.128Z,1890
2016-09-15T07:44:43.142Z,1695
2016-09-15T07:45:54.160Z,1915
2016-09-15T07:47:05.168Z,2055
2016-09-15T07:48:16.183Z,2020
2016-09-15T07:49:27.192Z,2030
2016-09-15T07:50:38.208Z,2020
2016-09-15T07:51:49.219Z,1965
2016-09-15T07:53:00.222Z,1890
2016-09-15T07:54:11.232Z,1990
2016-09-15T07:55:22.250Z,2065
2016-09-15T07:56:33.266Z,2040
2016-09-15T07:57:44.491Z,1995
2016-09-15T07:58:55.506Z,1995
2016-09-15T08:00:06.517Z,1970
2016-09-15T08:01:17.540Z,2065
2016-09-15T08:02:28.758Z,2105
2016-09-15T08:03:39.768Z,2145
2016-09-15T08:04:50.826Z,2150
2016-09-15T08:06:01.851Z,1895
2016-09-15T08:07:12.865Z,2055
2016-09-15T08:08:23.884Z,2435
2016-09-15T08:09:34.909Z,2355
2016-09-15T08:10:45.929Z,2240
2016-09-15T08:11:56.959Z,2320
2016-09-15T08:13:07.979Z,2275
2016-09-15T08:14:19.192Z,2265
2016-09-15T08:15:30.230Z,2145
2016-09-15T08:16:41.249Z,2260
2016-09-15T08:17:52.263Z,2355
2016-09-15T08:19:03.478Z,2290
2016-09-15T08:20:14.498Z,2225
2016-09-15T08:21:25.517Z,2400
2016-09-15T08:22:36.544Z,2245
2016-09-15T08:23:47.815Z,2145
2016-09-15T08:24:59.233Z,2145
2016-09-15T08:26:10.254Z,2175
2016-09-15T08:27:21.285Z,2250
2016-09-15T08:28:32.309Z,2240
2016-09-15T08:29:43.341Z,2245
2016-09-15T08:30:54.384Z,2225
2016-09-15T08:32:05.407Z,2215
2016-09-15T08:33:16.424Z,2145
2016-09-15T08:34:27.451Z,2110
2016-09-15T08:35:38.472Z,2190
2016-09-15T08:36:49.486Z,2325
2016-09-15T08:38:00.506Z,2360
2016-09-15T08:39:11.526Z,2260
2016-09-15T08:40:22.544Z,2220
2016-09-15T08:41:33.571Z,2325
2016-09-15T08:42:44.606Z,2240
2016-09-15T08:43:55.631Z,2325
2016-09-15T08:45:06.653Z,2300
2016-09-15T08:46:17.675Z,2270
2016-09-15T08:47:28.705Z,2200
2016-09-15T08:48:39.722Z,2285
2016-09-15T08:49:50.746Z,2230
2016-09-15T08:51:01.787Z,2250
2016-09-15T08:52:12.807Z,2185
2016-09-15T08:53:23.830Z,2225
2016-09-15T08:54:34.843Z,2210
2016-09-15T08:55:45.858Z,2265
2016-09-15T08:56:57.091Z,2210
2016-09-15T08:58:08.107Z,2260
2016-09-15T08:59:19.135Z,2230
2016-09-15T09:00:30.161Z,2310
2016-09-15T09:01:41.178Z,2135
2016-09-15T09:02:52.197Z,2010
2016-09-15T09:04:03.216Z,2160
2016-09-15T09:05:14.289Z,2175
2016-09-15T09:06:25.305Z,2170
2016-09-15T09:07:36.328Z,2270
2016-09-15T09:08:47.548Z,2300
2016-09-15T09:09:58.978Z,2165
2016-09-15T09:11:09.997Z,2065
2016-09-15T09:12:21.024Z,2090
2016-09-15T09:13:32.051Z,2160
2016-09-15T09:14:43.204Z,2285
2016-09-15T09:15:54.225Z,2250
2016-09-15T09:17:05.245Z,2215
2016-09-15T09:18:16.301Z,2170
2016-09-15T09:19:27.320Z,2180
2016-09-15T09:20:38.339Z,2105
2016-09-15T09:21:49.361Z,2095
2016-09-15T09:23:00.581Z,2105
2016-09-15T09:24:11.806Z,2050
2016-09-15T09:25:22.828Z,2105
2016-09-15T09:26:34.048Z,2120
2016-09-15T09:27:45.264Z,2235
2016-09-15T09:28:56.692Z,2250
2016-09-15T09:30:07.717Z,2175
2016-09-15T09:31:18.740Z,2330
2016-09-15T09:32:29.775Z,2320
2016-09-15T09:33:40.795Z,2170
2016-09-15T09:34:51.835Z,2240
2016-09-15T09:36:03.055Z,2230
2016-09-15T09:37:14.082Z,2250
2016-09-15T09:38:25.098Z,2210
2016-09-15T09:39:36.106Z,2230
2016-09-15T09:40:47.143Z,2220
2016-09-15T09:41:58.164Z,2240
2016-09-15T09:43:09.197Z,2285
2016-09-15T09:44:20.213Z,2300
2016-09-15T09:45:31.238Z,2350
2016-09-15T09:46:42.260Z,2290
2016-09-15T09:47:53.281Z,2255
2016-09-15T09:49:04.308Z,2365
2016-09-15T09:50:15.335Z,2250
2016-09-15T09:51:26.367Z,2275
2016-09-15T09:52:37.590Z,2295
2016-09-15T09:53:48.612Z,2220
2016-09-15T09:54:59.636Z,2260
2016-09-15T09:56:10.659Z,2245
2016-09-15T09:57:21.675Z,2160
2016-09-15T09:58:32.702Z,2200
2016-09-15T09:59:43.757Z,2205
2016-09-15T10:00:54.775Z,2155
2016-09-15T10:02:05.793Z,2180
2016-09-15T10:03:16.818Z,2215
2016-09-15T10:04:28.240Z,2240
2016-09-15T10:05:39.316Z,2165
2016-09-15T10:06:50.340Z,2160
2016-09-15T10:08:01.361Z,2140
2016-09-15T10:09:12.392Z,2235
2016-09-15T10:10:23.618Z,2170
2016-09-15T10:11:34.643Z,2165
2016-09-15T10:12:45.672Z,2150
2016-09-15T10:13:56.688Z,2130
2016-09-15T10:15:07.713Z,2130
2016-09-15T10:16:18.935Z,2240
2016-09-15T10:17:29.957Z,2235
2016-09-15T10:18:41.189Z,2135
2016-09-15T10:19:52.205Z,2330
2016-09-15T10:21:03.222Z,2230
2016-09-15T10:22:14.243Z,2210
2016-09-15T10:23:25.261Z,2125
2016-09-15T10:24:36.283Z,2160
2016-09-15T10:25:47.309Z,2190
2016-09-15T10:26:58.535Z,2110
2016-09-15T10:28:09.555Z,2080
2016-09-15T10:29:20.976Z,2105
2016-09-15T10:30:32.200Z,2070
2016-09-15T10:31:43.224Z,2095
2016-09-15T10:32:54.249Z,2120
2016-09-15T10:34:05.281Z,2120
2016-09-15T10:35:16.304Z,2060
2016-09-15T10:36:27.730Z,2050
2016-09-15T10:37:38.744Z,1995
2016-09-15T10:38:49.785Z,2070
2016-09-15T10:40:00.801Z,2045
2016-09-15T10:41:11.821Z,2020
2016-09-15T10:42:22.861Z,2055
2016-09-15T10:43:33.883Z,1975
2016-09-15T10:44:44.905Z,1990
2016-09-15T10:45:55.953Z,1985
2016-09-15T10:47:06.970Z,1970
2016-09-15T10:48:18.006Z,1995
2016-09-15T10:49:29.030Z,1950
2016-09-15T10:50:40.051Z,1910
2016-09-15T10:51:51.063Z,1985
2016-09-15T10:53:02.083Z,1925
2016-09-15T10:54:13.107Z,1885
2016-09-15T10:55:24.123Z,1935
2016-09-15T10:56:35.173Z,1865
2016-09-15T10:57:46.192Z,1875
2016-09-15T10:58:57.423Z,1880
2016-09-15T11:00:08.449Z,1885
2016-09-15T11:01:19.666Z,1880
2016-09-15T11:02:30.691Z,1915
2016-09-15T11:03:41.717Z,1815
2016-09-15T11:04:52.735Z,1860
2016-09-15T11:06:03.802Z,1855
2016-09-15T11:07:14.827Z,1820
2016-09-15T11:08:25.845Z,1815
2016-09-15T11:09:36.863Z,1810
2016-09-15T11:10:47.892Z,1780
2016-09-15T11:11:58.908Z,1795
2016-09-15T11:13:09.929Z,1750
2016-09-15T11:14:20.953Z,1700
2016-09-15T11:15:31.984Z,1730
2016-09-15T11:16:43.011Z,1750
2016-09-15T11:17:54.030Z,1730
2016-09-15T11:19:05.051Z,1670
2016-09-15T11:20:16.085Z,1650
2016-09-15T11:21:27.099Z,1635
2016-09-15T11:22:38.116Z,1560
2016-09-15T11:23:49.137Z,1575
2016-09-15T11:25:00.159Z,1585
2016-09-15T11:26:11.382Z,1515
2016-09-15T11:27:22.396Z,1570
2016-09-15T11:28:33.415Z,1510
2016-09-15T11:29:44.443Z,1445
2016-09-15T11:30:55.461Z,1480
2016-09-15T11:32:06.492Z,1455
2016-09-15T11:33:17.516Z,1445
2016-09-15T11:34:28.544Z,1460
2016-09-15T11:35:39.568Z,1440
2016-09-15T11:36:50.591Z,1110
2016-09-15T11:38:01.616Z,1455
2016-09-15T11:39:12.645Z,1405
2016-09-15T11:40:23.657Z,1580
2016-09-15T11:41:34.682Z,1570
2016-09-15T11:42:45.709Z,525
2016-09-15T11:43:56.733Z,1300
2016-09-15T11:45:07.752Z,510
2016-09-15T11:46:18.777Z,1210
2016-09-15T11:47:29.794Z,1200
2016-09-15T11:48:40.812Z,1125
2016-09-15T11:49:51.823Z,1310
2016-09-15T11:51:02.836Z,1300
2016-09-15T11:52:13.859Z,1260
2016-09-15T11:53:24.876Z,1150
2016-09-15T11:54:35.892Z,890
2016-09-15T11:55:46.909Z,495
2016-09-15T11:56:57.930Z,870
2016-09-15T11:58:08.947Z,840
2016-09-15T11:59:19.966Z,855
2016-09-15T12:00:30.995Z,455
2016-09-15T12:01:42.012Z,980
2016-09-15T12:02:53.033Z,960
2016-09-15T12:04:04.063Z,1040
2016-09-15T12:05:15.275Z,1120
2016-09-15T12:06:26.356Z,1040
2016-09-15T12:07:37.373Z,1195
2016-09-15T12:08:48.383Z,1210
2016-09-15T12:09:59.401Z,1200
2016-09-15T12:11:10.419Z,465
2016-09-15T12:12:21.441Z,1155
2016-09-15T12:13:32.469Z,1100
2016-09-15T12:14:43.489Z,1045
2016-09-15T12:15:54.511Z,1055
2016-09-15T12:17:05.522Z,1030
2016-09-15T12:18:16.547Z,655
2016-09-15T12:19:27.553Z,1005
2016-09-15T12:20:38.573Z,935
2016-09-15T12:21:49.790Z,910
2016-09-15T12:23:00.802Z,960
2016-09-15T12:24:11.826Z,925
2016-09-15T12:25:22.843Z,515
2016-09-15T12:26:33.874Z,810
2016-09-15T12:27:44.892Z,590
2016-09-15T12:28:55.907Z,425
2016-09-15T12:30:06.939Z,675
2016-09-15T12:31:17.960Z,415
2016-09-15T12:32:28.976Z,450
2016-09-15T12:33:39.990Z,400
2016-09-15T12:34:51.011Z,545
2016-09-15T12:36:02.225Z,375
2016-09-15T12:37:13.238Z,495
2016-09-15T12:38:24.250Z,435
2016-09-15T12:39:35.287Z,390
2016-09-15T12:40:46.313Z,370
2016-09-15T12:41:57.530Z,540
2016-09-15T12:43:08.545Z,395
2016-09-15T12:44:19.561Z,385
2016-09-15T12:45:30.580Z,425
2016-09-15T12:46:41.598Z,360
2016-09-15T12:47:52.616Z,375
2016-09-15T12:49:03.632Z,345
2016-09-15T12:50:14.848Z,360
2016-09-15T12:51:25.856Z,355
2016-09-15T12:52:36.874Z,355
2016-09-15T12:53:47.878Z,405
2016-09-15T12:54:59.087Z,495
2016-09-15T12:56:10.099Z,395
2016-09-15T12:57:21.106Z,340
2016-09-15T12:58:32.148Z,345
2016-09-15T12:59:43.206Z,335
2016-09-15T13:00:54.226Z,330
2016-09-15T13:02:05.239Z,330
2016-09-15T13:03:16.453Z,325
2016-09-15T13:04:27.468Z,320
2016-09-15T13:05:38.520Z,330
2016-09-15T13:06:49.787Z,350
2016-09-15T13:08:00.803Z,325
2016-09-15T13:09:11.818Z,355
2016-09-15T13:10:22.837Z,310
2016-09-15T13:11:34.048Z,315
2016-09-15T13:12:45.077Z,305
2016-09-15T13:13:56.356Z,320
2016-09-15T13:15:07.566Z,305
2016-09-15T13:16:18.577Z,330
2016-09-15T13:17:29.588Z,320
2016-09-15T13:18:40.587Z,295
2016-09-15T13:19:51.595Z,340
2016-09-15T13:21:02.609Z,405
2016-09-15T13:22:13.627Z,390
2016-09-15T13:23:24.643Z,380
2016-09-15T13:24:35.658Z,325
2016-09-15T13:25:46.663Z,305
2016-09-15T13:26:57.684Z,315
2016-09-15T13:28:08.701Z,320
2016-09-15T13:29:19.715Z,310
2016-09-15T13:30:30.721Z,300
2016-09-15T13:31:41.735Z,305
2016-09-15T13:32:52.752Z,280
2016-09-15T13:34:03.769Z,305
2016-09-15T13:35:14.785Z,285
2016-09-15T13:36:26.013Z,300
2016-09-15T13:37:37.429Z,285
2016-09-15T13:38:48.443Z,280
2016-09-15T13:39:59.460Z,270
2016-09-15T13:41:10.481Z,285
2016-09-15T13:42:21.488Z,280
2016-09-15T13:43:32.510Z,285
2016-09-15T13:44:43.529Z,275
2016-09-15T13:45:54.541Z,280
2016-09-15T13:47:05.552Z,280
2016-09-15T13:48:16.559Z,280
2016-09-15T13:49:27.573Z,285
2016-09-15T13:50:38.584Z,280
2016-09-15T13:51:49.790Z,280
2016-09-15T13:53:01.006Z,280
2016-09-15T13:54:12.021Z,280
2016-09-15T13:55:23.226Z,275
2016-09-15T13:56:34.240Z,290
2016-09-15T13:57:45.291Z,300
2016-09-15T13:58:56.510Z,335
2016-09-15T14:00:07.521Z,345
2016-09-15T14:01:18.938Z,350
2016-09-15T14:02:29.966Z,340
2016-09-15T14:03:41.189Z,335
2016-09-15T14:04:52.204Z,335
2016-09-15T14:06:03.219Z,330
2016-09-15T14:07:14.286Z,320
2016-09-15T14:08:25.492Z,300
2016-09-15T14:09:36.520Z,275
2016-09-15T14:10:47.522Z,270
2016-09-15T14:11:58.526Z,270
2016-09-15T14:13:09.536Z,260
2016-09-15T14:14:20.557Z,245
2016-09-15T14:15:31.565Z,225
2016-09-15T14:16:42.589Z,240
2016-09-15T14:17:53.999Z,225
2016-09-15T14:19:05.012Z,225
2016-09-15T14:20:16.030Z,225
2016-09-15T14:21:27.263Z,220
2016-09-15T14:22:38.471Z,220
2016-09-15T14:23:49.488Z,220
2016-09-15T14:25:00.701Z,215
2016-09-15T14:26:11.923Z,220
2016-09-15T14:27:22.948Z,215
2016-09-15T14:28:33.975Z,210
2016-09-15T14:29:45.017Z,215
2016-09-15T14:30:56.046Z,210
2016-09-15T14:32:07.052Z,210
2016-09-15T14:33:18.063Z,210
2016-09-15T14:34:29.070Z,205
2016-09-15T14:35:40.283Z,200
2016-09-15T14:36:51.301Z,200
2016-09-15T14:38:02.316Z,195
2016-09-15T14:39:13.331Z,195
2016-09-15T14:40:24.355Z,190
2016-09-15T14:41:35.361Z,190
2016-09-15T14:42:46.379Z,185
2016-09-15T14:43:57.388Z,185
2016-09-15T14:45:08.400Z,180
2016-09-15T14:46:19.412Z,185
2016-09-15T14:47:30.625Z,175
2016-09-15T14:48:41.632Z,175
2016-09-15T14:49:52.645Z,170
2016-09-15T14:51:03.658Z,175
2016-09-15T14:52:14.879Z,170
2016-09-15T14:53:25.892Z,165
2016-09-15T14:54:36.901Z,165
2016-09-15T14:55:48.311Z,165
2016-09-15T14:56:59.319Z,165
2016-09-15T14:58:10.524Z,165
2016-09-15T14:59:21.535Z,165
2016-09-15T15:00:42.812Z,165
2016-09-15T15:01:54.029Z,160
2016-09-15T15:03:05.046Z,160
2016-09-15T15:04:16.059Z,160
2016-09-15T15:05:27.082Z,160
2016-09-15T15:06:38.092Z,160
2016-09-15T15:07:49.153Z,165
2016-09-15T15:09:00.172Z,160
2016-09-15T15:10:11.176Z,160
2016-09-15T15:11:22.183Z,160
2016-09-15T15:12:33.396Z,160
2016-09-15T15:13:44.615Z,160
2016-09-15T15:14:55.646Z,160
2016-09-15T15:16:06.658Z,155
2016-09-15T15:17:17.897Z,155
2016-09-15T15:18:28.911Z,155
2016-09-15T15:19:39.922Z,155
2016-09-15T15:20:50.943Z,150
2016-09-15T15:22:01.955Z,150
2016-09-15T15:23:12.965Z,145
2016-09-15T15:24:23.980Z,140
2016-09-15T15:25:34.996Z,145
2016-09-15T15:26:46.016Z,145
2016-09-15T15:27:57.030Z,145
2016-09-15T15:29:08.041Z,145
2016-09-15T15:30:19.054Z,145
2016-09-15T15:31:30.079Z,145
2016-09-15T15:32:41.085Z,150
2016-09-15T15:33:52.091Z,145
2016-09-15T15:35:03.104Z,140
2016-09-15T15:36:14.107Z,140
2016-09-15T15:37:25.332Z,145
2016-09-15T15:38:36.549Z,145
2016-09-15T15:39:47.561Z,140
2016-09-15T15:40:58.573Z,140
2016-09-15T15:42:09.578Z,140
2016-09-15T15:43:20.793Z,140
2016-09-15T15:44:31.819Z,140
2016-09-15T15:45:42.828Z,140
2016-09-15T15:46:53.839Z,135
2016-09-15T15:48:04.852Z,140
2016-09-15T15:49:15.868Z,140
2016-09-15T15:50:26.866Z,140
2016-09-15T15:51:37.866Z,135
2016-09-15T15:52:49.083Z,135
2016-09-15T15:54:00.093Z,135
2016-09-15T15:55:11.095Z,135
2016-09-15T15:56:22.097Z,130
2016-09-15T15:57:33.101Z,130
2016-09-15T15:58:44.314Z,125
2016-09-15T15:59:55.521Z,120
2016-09-15T16:01:06.735Z,115
2016-09-15T16:02:17.756Z,110
2016-09-15T16:03:28.963Z,110
2016-09-15T16:04:40.168Z,110
2016-09-15T16:05:51.185Z,110
2016-09-15T16:07:02.194Z,110
2016-09-15T16:08:13.272Z,105
2016-09-15T16:09:24.275Z,105
2016-09-15T16:10:35.490Z,105
2016-09-15T16:11:46.496Z,100
2016-09-15T16:12:57.700Z,100
2016-09-15T16:14:08.719Z,100
2016-09-15T16:15:19.733Z,100
2016-09-15T16:16:30.739Z,100
2016-09-15T16:17:41.953Z,95
2016-09-15T16:18:52.966Z,95
2016-09-15T16:20:03.979Z,100
2016-09-15T16:21:15.195Z,95
2016-09-15T16:22:26.399Z,95
2016-09-15T16:23:37.407Z,95
2016-09-15T16:24:48.411Z,90
2016-09-15T16:25:59.415Z,90
2016-09-15T16:27:10.625Z,90
2016-09-15T16:28:21.640Z,85
2016-09-15T16:29:32.655Z,85
2016-09-15T16:30:43.661Z,85